sensor_id;sensor_type;location;lat;lon;timestamp;P1;durP1;ratioP1;P2;durP2;ratioP2
65799;SDS011;52544;48.116;11.660;2023-04-28T00:02:12;10.07;;;4.57;;
65799;SDS011;52544;48.116;11.660;2023-04-28T00:04:38;8.57;;;4.22;;
65799;SDS011;52544;48.116;11.660;2023-04-28T00:07:03;8.05;;;4.53;;
65799;SDS011;52544;48.116;11.660;2023-04-28T00:09:29;9.85;;;4.65;;
65799;SDS011;52544;48.116;11.660;2023-04-28T00:11:54;9.70;;;4.05;;
65799;SDS011;52544;48.116;11.660;2023-04-28T00:14:20;6.78;;;4.00;;
65799;SDS011;52544;48.116;11.660;2023-04-28T00:16:45;8.30;;;3.70;;
65799;SDS011;52544;48.116;11.660;2023-04-28T00:19:10;5.72;;;3.63;;
65799;SDS011;52544;48.116;11.660;2023-04-28T00:21:36;8.85;;;3.95;;
65799;SDS011;52544;48.116;11.660;2023-04-28T00:24:01;5.00;;;3.30;;
65799;SDS011;52544;48.116;11.660;2023-04-28T00:26:27;7.55;;;3.92;;
65799;SDS011;52544;48.116;11.660;2023-04-28T00:28:52;6.75;;;3.50;;
65799;SDS011;52544;48.116;11.660;2023-04-28T00:31:18;8.20;;;3.40;;
65799;SDS011;52544;48.116;11.660;2023-04-28T00:33:43;5.13;;;3.10;;
65799;SDS011;52544;48.116;11.660;2023-04-28T00:36:09;5.15;;;3.13;;
65799;SDS011;52544;48.116;11.660;2023-04-28T00:38:35;4.60;;;2.85;;
65799;SDS011;52544;48.116;11.660;2023-04-28T00:41:01;6.53;;;3.40;;
65799;SDS011;52544;48.116;11.660;2023-04-28T00:43:27;7.15;;;3.42;;
65799;SDS011;52544;48.116;11.660;2023-04-28T00:45:53;5.55;;;2.92;;
65799;SDS011;52544;48.116;11.660;2023-04-28T00:48:18;8.65;;;3.15;;
65799;SDS011;52544;48.116;11.660;2023-04-28T00:50:44;5.40;;;3.05;;
65799;SDS011;52544;48.116;11.660;2023-04-28T00:53:11;4.57;;;2.90;;
65799;SDS011;52544;48.116;11.660;2023-04-28T00:55:37;6.63;;;2.80;;
65799;SDS011;52544;48.116;11.660;2023-04-28T00:58:03;4.47;;;2.90;;
65799;SDS011;52544;48.116;11.660;2023-04-28T01:00:29;5.45;;;3.13;;
65799;SDS011;52544;48.116;11.660;2023-04-28T01:02:55;4.13;;;2.67;;
65799;SDS011;52544;48.116;11.660;2023-04-28T01:05:21;5.10;;;2.90;;
65799;SDS011;52544;48.116;11.660;2023-04-28T01:07:49;7.07;;;3.00;;
65799;SDS011;52544;48.116;11.660;2023-04-28T01:10:15;8.70;;;3.33;;
65799;SDS011;52544;48.116;11.660;2023-04-28T01:12:40;8.73;;;3.38;;
65799;SDS011;52544;48.116;11.660;2023-04-28T01:15:06;5.50;;;2.60;;
65799;SDS011;52544;48.116;11.660;2023-04-28T01:17:39;4.95;;;3.25;;
65799;SDS011;52544;48.116;11.660;2023-04-28T01:20:05;4.68;;;3.20;;
65799;SDS011;52544;48.116;11.660;2023-04-28T01:22:31;6.68;;;3.05;;
65799;SDS011;52544;48.116;11.660;2023-04-28T01:24:56;7.32;;;2.50;;
65799;SDS011;52544;48.116;11.660;2023-04-28T01:27:24;4.53;;;2.90;;
65799;SDS011;52544;48.116;11.660;2023-04-28T01:29:50;4.45;;;2.97;;
65799;SDS011;52544;48.116;11.660;2023-04-28T01:32:15;5.78;;;3.10;;
65799;SDS011;52544;48.116;11.660;2023-04-28T01:34:40;4.30;;;2.90;;
65799;SDS011;52544;48.116;11.660;2023-04-28T01:37:06;5.35;;;3.08;;
65799;SDS011;52544;48.116;11.660;2023-04-28T01:39:31;4.32;;;2.70;;
65799;SDS011;52544;48.116;11.660;2023-04-28T01:41:56;4.32;;;2.80;;
65799;SDS011;52544;48.116;11.660;2023-04-28T01:44:22;5.03;;;2.78;;
65799;SDS011;52544;48.116;11.660;2023-04-28T01:46:47;3.28;;;2.67;;
65799;SDS011;52544;48.116;11.660;2023-04-28T01:49:13;4.85;;;2.80;;
65799;SDS011;52544;48.116;11.660;2023-04-28T01:51:38;4.40;;;2.75;;
65799;SDS011;52544;48.116;11.660;2023-04-28T01:54:04;4.68;;;2.85;;
65799;SDS011;52544;48.116;11.660;2023-04-28T01:56:30;3.80;;;2.30;;
65799;SDS011;52544;48.116;11.660;2023-04-28T01:58:55;3.97;;;2.42;;
65799;SDS011;52544;48.116;11.660;2023-04-28T02:01:21;8.93;;;2.47;;
65799;SDS011;52544;48.116;11.660;2023-04-28T02:03:46;4.43;;;2.75;;
65799;SDS011;52544;48.116;11.660;2023-04-28T02:06:13;4.53;;;2.33;;
65799;SDS011;52544;48.116;11.660;2023-04-28T02:08:38;3.55;;;2.60;;
65799;SDS011;52544;48.116;11.660;2023-04-28T02:11:03;4.07;;;2.55;;
65799;SDS011;52544;48.116;11.660;2023-04-28T02:13:29;4.15;;;2.60;;
65799;SDS011;52544;48.116;11.660;2023-04-28T02:15:54;4.50;;;2.33;;
65799;SDS011;52544;48.116;11.660;2023-04-28T02:18:20;3.28;;;2.40;;
65799;SDS011;52544;48.116;11.660;2023-04-28T02:20:45;5.07;;;2.50;;
65799;SDS011;52544;48.116;11.660;2023-04-28T02:23:11;3.22;;;2.35;;
65799;SDS011;52544;48.116;11.660;2023-04-28T02:25:36;4.68;;;2.08;;
65799;SDS011;52544;48.116;11.660;2023-04-28T02:28:01;3.47;;;2.33;;
65799;SDS011;52544;48.116;11.660;2023-04-28T02:30:27;4.53;;;2.40;;
65799;SDS011;52544;48.116;11.660;2023-04-28T02:32:52;3.53;;;2.38;;
65799;SDS011;52544;48.116;11.660;2023-04-28T02:35:18;3.78;;;2.33;;
65799;SDS011;52544;48.116;11.660;2023-04-28T02:37:43;5.80;;;2.60;;
65799;SDS011;52544;48.116;11.660;2023-04-28T02:40:09;4.78;;;2.60;;
65799;SDS011;52544;48.116;11.660;2023-04-28T02:42:34;4.65;;;2.88;;
65799;SDS011;52544;48.116;11.660;2023-04-28T02:45:00;3.42;;;2.47;;
65799;SDS011;52544;48.116;11.660;2023-04-28T02:47:25;2.78;;;2.15;;
65799;SDS011;52544;48.116;11.660;2023-04-28T02:49:51;4.47;;;2.75;;
65799;SDS011;52544;48.116;11.660;2023-04-28T02:52:16;3.95;;;2.63;;
65799;SDS011;52544;48.116;11.660;2023-04-28T02:54:42;3.03;;;2.20;;
65799;SDS011;52544;48.116;11.660;2023-04-28T02:57:07;4.03;;;2.40;;
65799;SDS011;52544;48.116;11.660;2023-04-28T02:59:33;5.75;;;2.72;;
65799;SDS011;52544;48.116;11.660;2023-04-28T03:01:59;3.53;;;2.30;;
65799;SDS011;52544;48.116;11.660;2023-04-28T03:04:25;3.13;;;2.30;;
65799;SDS011;52544;48.116;11.660;2023-04-28T03:06:51;4.65;;;2.20;;
65799;SDS011;52544;48.116;11.660;2023-04-28T03:09:16;4.80;;;2.30;;
65799;SDS011;52544;48.116;11.660;2023-04-28T03:11:42;3.15;;;2.38;;
65799;SDS011;52544;48.116;11.660;2023-04-28T03:14:07;4.18;;;2.42;;
65799;SDS011;52544;48.116;11.660;2023-04-28T03:16:33;4.10;;;2.30;;
65799;SDS011;52544;48.116;11.660;2023-04-28T03:18:58;3.30;;;2.28;;
65799;SDS011;52544;48.116;11.660;2023-04-28T03:21:23;3.72;;;2.17;;
65799;SDS011;52544;48.116;11.660;2023-04-28T03:23:52;4.75;;;2.28;;
65799;SDS011;52544;48.116;11.660;2023-04-28T03:26:17;5.22;;;2.33;;
65799;SDS011;52544;48.116;11.660;2023-04-28T03:28:43;4.35;;;2.70;;
65799;SDS011;52544;48.116;11.660;2023-04-28T03:31:09;4.05;;;2.58;;
65799;SDS011;52544;48.116;11.660;2023-04-28T03:33:34;3.95;;;2.45;;
65799;SDS011;52544;48.116;11.660;2023-04-28T03:36:00;4.07;;;2.42;;
65799;SDS011;52544;48.116;11.660;2023-04-28T03:38:25;3.80;;;2.47;;
65799;SDS011;52544;48.116;11.660;2023-04-28T03:40:51;2.50;;;1.88;;
65799;SDS011;52544;48.116;11.660;2023-04-28T03:43:16;2.50;;;2.08;;
65799;SDS011;52544;48.116;11.660;2023-04-28T03:45:41;5.20;;;2.35;;
65799;SDS011;52544;48.116;11.660;2023-04-28T03:48:07;4.70;;;2.45;;
65799;SDS011;52544;48.116;11.660;2023-04-28T03:50:32;4.93;;;2.85;;
65799;SDS011;52544;48.116;11.660;2023-04-28T03:52:58;2.70;;;1.95;;
65799;SDS011;52544;48.116;11.660;2023-04-28T03:55:23;3.75;;;2.10;;
65799;SDS011;52544;48.116;11.660;2023-04-28T03:57:50;5.55;;;2.38;;
65799;SDS011;52544;48.116;11.660;2023-04-28T04:00:16;5.30;;;2.45;;
65799;SDS011;52544;48.116;11.660;2023-04-28T04:02:41;3.47;;;2.28;;
65799;SDS011;52544;48.116;11.660;2023-04-28T04:05:07;2.72;;;2.03;;
65799;SDS011;52544;48.116;11.660;2023-04-28T04:07:32;3.45;;;2.30;;
65799;SDS011;52544;48.116;11.660;2023-04-28T04:09:57;3.90;;;2.40;;
65799;SDS011;52544;48.116;11.660;2023-04-28T04:12:23;5.43;;;2.47;;
65799;SDS011;52544;48.116;11.660;2023-04-28T04:14:48;3.95;;;2.28;;
65799;SDS011;52544;48.116;11.660;2023-04-28T04:17:13;4.80;;;2.63;;
65799;SDS011;52544;48.116;11.660;2023-04-28T04:19:40;4.22;;;2.55;;
65799;SDS011;52544;48.116;11.660;2023-04-28T04:22:05;3.17;;;2.20;;
65799;SDS011;52544;48.116;11.660;2023-04-28T04:24:30;3.90;;;2.45;;
65799;SDS011;52544;48.116;11.660;2023-04-28T04:26:56;2.65;;;2.05;;
65799;SDS011;52544;48.116;11.660;2023-04-28T04:29:21;2.80;;;1.95;;
65799;SDS011;52544;48.116;11.660;2023-04-28T04:31:47;3.53;;;2.33;;
65799;SDS011;52544;48.116;11.660;2023-04-28T04:34:13;3.70;;;2.20;;
65799;SDS011;52544;48.116;11.660;2023-04-28T04:36:39;13.23;;;2.30;;
65799;SDS011;52544;48.116;11.660;2023-04-28T04:39:04;2.72;;;2.17;;
65799;SDS011;52544;48.116;11.660;2023-04-28T04:41:29;4.47;;;2.63;;
65799;SDS011;52544;48.116;11.660;2023-04-28T04:43:55;6.22;;;2.53;;
65799;SDS011;52544;48.116;11.660;2023-04-28T04:46:20;4.07;;;2.45;;
65799;SDS011;52544;48.116;11.660;2023-04-28T04:48:46;3.28;;;2.35;;
65799;SDS011;52544;48.116;11.660;2023-04-28T04:51:12;3.97;;;2.65;;
65799;SDS011;52544;48.116;11.660;2023-04-28T04:53:37;6.05;;;2.65;;
65799;SDS011;52544;48.116;11.660;2023-04-28T04:56:03;4.82;;;2.50;;
65799;SDS011;52544;48.116;11.660;2023-04-28T04:58:29;5.70;;;2.47;;
65799;SDS011;52544;48.116;11.660;2023-04-28T05:00:54;4.95;;;2.72;;
65799;SDS011;52544;48.116;11.660;2023-04-28T05:03:20;4.47;;;2.72;;
65799;SDS011;52544;48.116;11.660;2023-04-28T05:05:45;10.27;;;2.40;;
65799;SDS011;52544;48.116;11.660;2023-04-28T05:08:11;4.82;;;2.67;;
65799;SDS011;52544;48.116;11.660;2023-04-28T05:10:37;6.10;;;2.72;;
65799;SDS011;52544;48.116;11.660;2023-04-28T05:13:03;4.72;;;2.78;;
65799;SDS011;52544;48.116;11.660;2023-04-28T05:15:28;3.33;;;2.55;;
65799;SDS011;52544;48.116;11.660;2023-04-28T05:17:54;4.95;;;3.05;;
65799;SDS011;52544;48.116;11.660;2023-04-28T05:20:20;3.35;;;2.63;;
65799;SDS011;52544;48.116;11.660;2023-04-28T05:22:46;5.20;;;3.30;;
65799;SDS011;52544;48.116;11.660;2023-04-28T05:25:11;7.95;;;3.20;;
65799;SDS011;52544;48.116;11.660;2023-04-28T05:27:36;4.60;;;2.90;;
65799;SDS011;52544;48.116;11.660;2023-04-28T05:30:04;4.30;;;2.90;;
65799;SDS011;52544;48.116;11.660;2023-04-28T05:32:30;4.07;;;2.80;;
65799;SDS011;52544;48.116;11.660;2023-04-28T05:34:55;6.45;;;3.47;;
65799;SDS011;52544;48.116;11.660;2023-04-28T05:37:21;4.47;;;3.13;;
65799;SDS011;52544;48.116;11.660;2023-04-28T05:39:46;6.00;;;4.18;;
65799;SDS011;52544;48.116;11.660;2023-04-28T05:42:12;9.02;;;5.20;;
65799;SDS011;52544;48.116;11.660;2023-04-28T05:44:37;6.75;;;3.53;;
65799;SDS011;52544;48.116;11.660;2023-04-28T05:47:02;5.22;;;3.72;;
65799;SDS011;52544;48.116;11.660;2023-04-28T05:49:28;4.85;;;3.28;;
65799;SDS011;52544;48.116;11.660;2023-04-28T05:51:53;8.32;;;3.30;;
65799;SDS011;52544;48.116;11.660;2023-04-28T05:54:18;5.50;;;3.00;;
65799;SDS011;52544;48.116;11.660;2023-04-28T05:56:44;6.32;;;3.47;;
65799;SDS011;52544;48.116;11.660;2023-04-28T05:59:09;11.88;;;7.20;;
65799;SDS011;52544;48.116;11.660;2023-04-28T06:01:35;15.40;;;8.07;;
65799;SDS011;52544;48.116;11.660;2023-04-28T06:04:00;11.40;;;5.38;;
65799;SDS011;52544;48.116;11.660;2023-04-28T06:06:26;13.02;;;5.38;;
65799;SDS011;52544;48.116;11.660;2023-04-28T06:08:51;17.60;;;8.38;;
65799;SDS011;52544;48.116;11.660;2023-04-28T06:11:17;11.90;;;5.88;;
65799;SDS011;52544;48.116;11.660;2023-04-28T06:13:46;7.07;;;2.80;;
65799;SDS011;52544;48.116;11.660;2023-04-28T06:16:12;3.17;;;2.20;;
65799;SDS011;52544;48.116;11.660;2023-04-28T06:18:37;5.40;;;2.38;;
65799;SDS011;52544;48.116;11.660;2023-04-28T06:21:03;2.97;;;2.15;;
65799;SDS011;52544;48.116;11.660;2023-04-28T06:23:28;6.35;;;3.35;;
65799;SDS011;52544;48.116;11.660;2023-04-28T06:25:53;3.67;;;2.60;;
65799;SDS011;52544;48.116;11.660;2023-04-28T06:28:19;5.40;;;2.55;;
65799;SDS011;52544;48.116;11.660;2023-04-28T06:30:44;3.17;;;2.38;;
65799;SDS011;52544;48.116;11.660;2023-04-28T06:33:10;3.97;;;2.38;;
65799;SDS011;52544;48.116;11.660;2023-04-28T06:35:35;5.88;;;3.63;;
65799;SDS011;52544;48.116;11.660;2023-04-28T06:38:03;6.25;;;4.40;;
65799;SDS011;52544;48.116;11.660;2023-04-28T06:40:28;5.65;;;3.88;;
65799;SDS011;52544;48.116;11.660;2023-04-28T06:42:54;11.60;;;4.03;;
65799;SDS011;52544;48.116;11.660;2023-04-28T06:45:19;5.25;;;3.40;;
65799;SDS011;52544;48.116;11.660;2023-04-28T06:47:45;6.35;;;3.40;;
65799;SDS011;52544;48.116;11.660;2023-04-28T06:50:10;5.30;;;3.30;;
65799;SDS011;52544;48.116;11.660;2023-04-28T06:52:36;10.77;;;4.10;;
65799;SDS011;52544;48.116;11.660;2023-04-28T06:55:03;8.48;;;4.35;;
65799;SDS011;52544;48.116;11.660;2023-04-28T06:57:33;7.38;;;3.78;;
65799;SDS011;52544;48.116;11.660;2023-04-28T06:59:58;7.57;;;3.35;;
65799;SDS011;52544;48.116;11.660;2023-04-28T07:02:24;7.10;;;3.28;;
65799;SDS011;52544;48.116;11.660;2023-04-28T07:04:50;5.10;;;3.08;;
65799;SDS011;52544;48.116;11.660;2023-04-28T07:07:15;3.92;;;2.92;;
65799;SDS011;52544;48.116;11.660;2023-04-28T07:09:41;4.68;;;2.70;;
65799;SDS011;52544;48.116;11.660;2023-04-28T07:12:06;5.60;;;2.58;;
65799;SDS011;52544;48.116;11.660;2023-04-28T07:14:32;6.75;;;3.00;;
65799;SDS011;52544;48.116;11.660;2023-04-28T07:16:57;3.10;;;2.35;;
65799;SDS011;52544;48.116;11.660;2023-04-28T07:19:23;2.72;;;2.00;;
65799;SDS011;52544;48.116;11.660;2023-04-28T07:21:48;2.30;;;1.85;;
65799;SDS011;52544;48.116;11.660;2023-04-28T07:24:14;1.70;;;1.60;;
65799;SDS011;52544;48.116;11.660;2023-04-28T07:26:39;4.43;;;2.13;;
65799;SDS011;52544;48.116;11.660;2023-04-28T07:29:05;2.55;;;1.80;;
65799;SDS011;52544;48.116;11.660;2023-04-28T07:31:30;2.33;;;1.63;;
65799;SDS011;52544;48.116;11.660;2023-04-28T07:33:56;2.67;;;1.50;;
65799;SDS011;52544;48.116;11.660;2023-04-28T07:36:21;2.40;;;1.63;;
65799;SDS011;52544;48.116;11.660;2023-04-28T07:38:46;3.55;;;2.08;;
65799;SDS011;52544;48.116;11.660;2023-04-28T07:41:12;5.85;;;1.83;;
65799;SDS011;52544;48.116;11.660;2023-04-28T07:43:38;3.45;;;2.05;;
65799;SDS011;52544;48.116;11.660;2023-04-28T07:46:05;5.05;;;1.80;;
65799;SDS011;52544;48.116;11.660;2023-04-28T07:48:31;3.35;;;1.90;;
65799;SDS011;52544;48.116;11.660;2023-04-28T07:50:56;2.80;;;1.70;;
65799;SDS011;52544;48.116;11.660;2023-04-28T07:53:22;2.97;;;1.80;;
65799;SDS011;52544;48.116;11.660;2023-04-28T07:55:47;2.80;;;2.00;;
65799;SDS011;52544;48.116;11.660;2023-04-28T07:58:12;3.25;;;1.92;;
65799;SDS011;52544;48.116;11.660;2023-04-28T08:00:38;2.67;;;1.70;;
65799;SDS011;52544;48.116;11.660;2023-04-28T08:03:03;3.42;;;1.90;;
65799;SDS011;52544;48.116;11.660;2023-04-28T08:05:29;1.90;;;1.40;;
65799;SDS011;52544;48.116;11.660;2023-04-28T08:07:54;3.25;;;1.58;;
65799;SDS011;52544;48.116;11.660;2023-04-28T08:10:20;2.00;;;1.70;;
65799;SDS011;52544;48.116;11.660;2023-04-28T08:12:45;1.90;;;1.50;;
65799;SDS011;52544;48.116;11.660;2023-04-28T08:15:11;3.30;;;1.70;;
65799;SDS011;52544;48.116;11.660;2023-04-28T08:17:36;3.13;;;1.77;;
65799;SDS011;52544;48.116;11.660;2023-04-28T08:20:02;2.47;;;1.70;;
65799;SDS011;52544;48.116;11.660;2023-04-28T08:22:28;2.05;;;1.60;;
65799;SDS011;52544;48.116;11.660;2023-04-28T08:24:53;2.67;;;1.52;;
65799;SDS011;52544;48.116;11.660;2023-04-28T08:27:19;6.00;;;1.67;;
65799;SDS011;52544;48.116;11.660;2023-04-28T08:29:44;2.60;;;1.73;;
65799;SDS011;52544;48.116;11.660;2023-04-28T08:32:09;2.30;;;1.40;;
65799;SDS011;52544;48.116;11.660;2023-04-28T08:34:35;1.65;;;1.42;;
65799;SDS011;52544;48.116;11.660;2023-04-28T08:37:00;2.58;;;1.70;;
65799;SDS011;52544;48.116;11.660;2023-04-28T08:39:26;3.05;;;1.67;;
65799;SDS011;52544;48.116;11.660;2023-04-28T08:41:52;2.63;;;1.80;;
65799;SDS011;52544;48.116;11.660;2023-04-28T08:44:18;2.75;;;1.60;;
65799;SDS011;52544;48.116;11.660;2023-04-28T08:46:44;3.33;;;1.60;;
65799;SDS011;52544;48.116;11.660;2023-04-28T08:49:16;5.40;;;2.30;;
65799;SDS011;52544;48.116;11.660;2023-04-28T08:51:46;3.15;;;1.90;;
65799;SDS011;52544;48.116;11.660;2023-04-28T08:54:14;4.60;;;1.95;;
65799;SDS011;52544;48.116;11.660;2023-04-28T08:56:41;4.82;;;1.70;;
65799;SDS011;52544;48.116;11.660;2023-04-28T08:59:09;3.17;;;1.90;;
65799;SDS011;52544;48.116;11.660;2023-04-28T09:01:35;3.63;;;1.77;;
65799;SDS011;52544;48.116;11.660;2023-04-28T09:04:01;4.00;;;2.72;;
65799;SDS011;52544;48.116;11.660;2023-04-28T09:06:31;3.40;;;2.70;;
65799;SDS011;52544;48.116;11.660;2023-04-28T09:09:19;4.38;;;2.60;;
65799;SDS011;52544;48.116;11.660;2023-04-28T09:11:54;4.80;;;3.10;;
65799;SDS011;52544;48.116;11.660;2023-04-28T09:14:21;3.15;;;2.28;;
65799;SDS011;52544;48.116;11.660;2023-04-28T09:16:47;4.05;;;2.10;;
65799;SDS011;52544;48.116;11.660;2023-04-28T09:19:14;3.67;;;1.98;;
65799;SDS011;52544;48.116;11.660;2023-04-28T09:21:54;4.07;;;1.98;;
65799;SDS011;52544;48.116;11.660;2023-04-28T09:27:05;2.90;;;1.77;;
65799;SDS011;52544;48.116;11.660;2023-04-28T09:29:34;3.50;;;2.03;;
65799;SDS011;52544;48.116;11.660;2023-04-28T09:32:13;4.10;;;2.08;;
65799;SDS011;52544;48.116;11.660;2023-04-28T09:37:20;2.50;;;1.75;;
65799;SDS011;52544;48.116;11.660;2023-04-28T09:39:47;4.43;;;1.75;;
65799;SDS011;52544;48.116;11.660;2023-04-28T09:45:05;2.65;;;1.65;;
65799;SDS011;52544;48.116;11.660;2023-04-28T09:47:33;3.00;;;1.80;;
65799;SDS011;52544;48.116;11.660;2023-04-28T09:50:01;2.97;;;1.73;;
65799;SDS011;52544;48.116;11.660;2023-04-28T09:52:28;4.93;;;2.00;;
65799;SDS011;52544;48.116;11.660;2023-04-28T09:54:54;10.52;;;2.17;;
65799;SDS011;52544;48.116;11.660;2023-04-28T09:57:21;3.53;;;1.77;;
65799;SDS011;52544;48.116;11.660;2023-04-28T09:59:48;5.88;;;1.90;;
65799;SDS011;52544;48.116;11.660;2023-04-28T10:02:15;2.80;;;1.70;;
65799;SDS011;52544;48.116;11.660;2023-04-28T10:04:45;3.25;;;1.60;;
65799;SDS011;52544;48.116;11.660;2023-04-28T10:07:12;3.38;;;2.20;;
65799;SDS011;52544;48.116;11.660;2023-04-28T10:09:40;2.35;;;1.75;;
65799;SDS011;52544;48.116;11.660;2023-04-28T10:12:09;5.15;;;1.90;;
65799;SDS011;52544;48.116;11.660;2023-04-28T10:14:36;2.90;;;1.85;;
65799;SDS011;52544;48.116;11.660;2023-04-28T10:17:02;2.00;;;1.48;;
65799;SDS011;52544;48.116;11.660;2023-04-28T10:19:29;3.00;;;1.60;;
65799;SDS011;52544;48.116;11.660;2023-04-28T10:22:18;4.20;;;1.75;;
65799;SDS011;52544;48.116;11.660;2023-04-28T10:27:40;3.13;;;1.83;;
65799;SDS011;52544;48.116;11.660;2023-04-28T10:30:11;2.13;;;1.20;;
65799;SDS011;52544;48.116;11.660;2023-04-28T10:32:38;3.72;;;1.48;;
65799;SDS011;52544;48.116;11.660;2023-04-28T10:43:01;2.65;;;1.27;;
65799;SDS011;52544;48.116;11.660;2023-04-28T10:48:21;3.58;;;1.83;;
65799;SDS011;52544;48.116;11.660;2023-04-28T10:56:12;1.35;;;0.90;;
65799;SDS011;52544;48.116;11.660;2023-04-28T10:58:41;2.08;;;1.00;;
65799;SDS011;52544;48.116;11.660;2023-04-28T11:03:54;1.40;;;1.10;;
65799;SDS011;52544;48.116;11.660;2023-04-28T11:11:39;1.40;;;0.88;;
65799;SDS011;52544;48.116;11.660;2023-04-28T11:16:57;1.77;;;1.10;;
65799;SDS011;52544;48.116;11.660;2023-04-28T11:19:27;1.33;;;0.82;;
65799;SDS011;52544;48.116;11.660;2023-04-28T11:21:54;1.45;;;1.05;;
65799;SDS011;52544;48.116;11.660;2023-04-28T11:24:24;2.58;;;0.90;;
65799;SDS011;52544;48.116;11.660;2023-04-28T11:26:51;1.70;;;0.82;;
65799;SDS011;52544;48.116;11.660;2023-04-28T11:29:17;2.85;;;0.90;;
65799;SDS011;52544;48.116;11.660;2023-04-28T11:31:50;1.45;;;0.93;;
65799;SDS011;52544;48.116;11.660;2023-04-28T11:34:19;1.27;;;1.17;;
65799;SDS011;52544;48.116;11.660;2023-04-28T11:36:48;4.45;;;1.35;;
65799;SDS011;52544;48.116;11.660;2023-04-28T11:39:13;2.78;;;1.75;;
65799;SDS011;52544;48.116;11.660;2023-04-28T11:41:41;4.15;;;2.15;;
65799;SDS011;52544;48.116;11.660;2023-04-28T11:46:47;3.03;;;1.10;;
65799;SDS011;52544;48.116;11.660;2023-04-28T11:49:20;1.13;;;1.02;;
65799;SDS011;52544;48.116;11.660;2023-04-28T11:51:49;3.08;;;1.40;;
65799;SDS011;52544;48.116;11.660;2023-04-28T11:54:34;1.38;;;1.00;;
65799;SDS011;52544;48.116;11.660;2023-04-28T11:57:01;1.75;;;1.00;;
65799;SDS011;52544;48.116;11.660;2023-04-28T11:59:30;3.20;;;2.03;;
65799;SDS011;52544;48.116;11.660;2023-04-28T12:01:58;1.75;;;1.00;;
65799;SDS011;52544;48.116;11.660;2023-04-28T12:04:34;2.88;;;0.90;;
65799;SDS011;52544;48.116;11.660;2023-04-28T12:07:08;1.45;;;1.27;;
65799;SDS011;52544;48.116;11.660;2023-04-28T12:09:46;1.60;;;1.02;;
65799;SDS011;52544;48.116;11.660;2023-04-28T12:12:34;2.78;;;1.10;;
65799;SDS011;52544;48.116;11.660;2023-04-28T12:15:00;3.78;;;1.10;;
65799;SDS011;52544;48.116;11.660;2023-04-28T12:17:32;0.98;;;0.82;;
65799;SDS011;52544;48.116;11.660;2023-04-28T12:19:59;1.27;;;1.00;;
65799;SDS011;52544;48.116;11.660;2023-04-28T12:22:27;2.40;;;1.80;;
65799;SDS011;52544;48.116;11.660;2023-04-28T12:25:06;3.13;;;1.50;;
65799;SDS011;52544;48.116;11.660;2023-04-28T12:27:33;1.98;;;1.20;;
65799;SDS011;52544;48.116;11.660;2023-04-28T12:32:44;1.20;;;1.00;;
65799;SDS011;52544;48.116;11.660;2023-04-28T12:35:10;1.17;;;1.00;;
65799;SDS011;52544;48.116;11.660;2023-04-28T12:37:36;1.70;;;1.25;;
65799;SDS011;52544;48.116;11.660;2023-04-28T12:40:05;1.13;;;0.90;;
65799;SDS011;52544;48.116;11.660;2023-04-28T12:42:32;4.32;;;1.60;;
65799;SDS011;52544;48.116;11.660;2023-04-28T12:44:57;2.17;;;1.50;;
65799;SDS011;52544;48.116;11.660;2023-04-28T12:47:23;1.27;;;0.90;;
65799;SDS011;52544;48.116;11.660;2023-04-28T12:49:49;10.65;;;1.42;;
65799;SDS011;52544;48.116;11.660;2023-04-28T12:52:17;3.97;;;2.53;;
65799;SDS011;52544;48.116;11.660;2023-04-28T12:54:43;1.40;;;1.08;;
65799;SDS011;52544;48.116;11.660;2023-04-28T12:57:11;4.10;;;2.03;;
65799;SDS011;52544;48.116;11.660;2023-04-28T12:59:37;5.32;;;2.70;;
65799;SDS011;52544;48.116;11.660;2023-04-28T13:02:03;12.88;;;6.82;;
65799;SDS011;52544;48.116;11.660;2023-04-28T13:04:29;13.80;;;6.57;;
65799;SDS011;52544;48.116;11.660;2023-04-28T13:06:56;5.60;;;3.28;;
65799;SDS011;52544;48.116;11.660;2023-04-28T13:09:23;5.80;;;2.78;;
65799;SDS011;52544;48.116;11.660;2023-04-28T13:11:49;10.85;;;5.40;;
65799;SDS011;52544;48.116;11.660;2023-04-28T13:14:14;8.13;;;5.60;;
65799;SDS011;52544;48.116;11.660;2023-04-28T13:16:40;5.70;;;3.45;;
65799;SDS011;52544;48.116;11.660;2023-04-28T13:19:05;2.60;;;2.00;;
65799;SDS011;52544;48.116;11.660;2023-04-28T13:21:34;2.05;;;1.05;;
65799;SDS011;52544;48.116;11.660;2023-04-28T13:24:01;1.85;;;1.00;;
65799;SDS011;52544;48.116;11.660;2023-04-28T13:26:27;3.10;;;1.23;;
65799;SDS011;52544;48.116;11.660;2023-04-28T13:28:52;2.63;;;1.00;;
65799;SDS011;52544;48.116;11.660;2023-04-28T13:31:18;3.67;;;1.60;;
65799;SDS011;52544;48.116;11.660;2023-04-28T13:33:44;3.67;;;1.70;;
65799;SDS011;52544;48.116;11.660;2023-04-28T13:36:09;1.98;;;1.30;;
65799;SDS011;52544;48.116;11.660;2023-04-28T13:38:34;1.98;;;1.23;;
65799;SDS011;52544;48.116;11.660;2023-04-28T13:41:00;4.70;;;2.13;;
65799;SDS011;52544;48.116;11.660;2023-04-28T13:43:26;5.15;;;3.58;;
65799;SDS011;52544;48.116;11.660;2023-04-28T13:45:51;2.80;;;1.52;;
65799;SDS011;52544;48.116;11.660;2023-04-28T13:48:17;0.68;;;0.68;;
65799;SDS011;52544;48.116;11.660;2023-04-28T13:50:42;4.47;;;2.30;;
65799;SDS011;52544;48.116;11.660;2023-04-28T13:53:08;1.48;;;1.02;;
65799;SDS011;52544;48.116;11.660;2023-04-28T13:55:34;3.60;;;2.10;;
65799;SDS011;52544;48.116;11.660;2023-04-28T13:57:59;3.08;;;1.40;;
65799;SDS011;52544;48.116;11.660;2023-04-28T14:00:35;0.63;;;0.63;;
65799;SDS011;52544;48.116;11.660;2023-04-28T14:03:01;2.42;;;1.52;;
65799;SDS011;52544;48.116;11.660;2023-04-28T14:05:27;2.40;;;1.17;;
65799;SDS011;52544;48.116;11.660;2023-04-28T14:07:53;1.40;;;1.15;;
65799;SDS011;52544;48.116;11.660;2023-04-28T14:10:19;2.05;;;1.70;;
65799;SDS011;52544;48.116;11.660;2023-04-28T14:12:44;1.90;;;1.38;;
65799;SDS011;52544;48.116;11.660;2023-04-28T14:15:10;1.10;;;0.90;;
65799;SDS011;52544;48.116;11.660;2023-04-28T14:17:35;2.38;;;1.08;;
65799;SDS011;52544;48.116;11.660;2023-04-28T14:20:01;3.22;;;2.35;;
65799;SDS011;52544;48.116;11.660;2023-04-28T14:22:27;2.42;;;1.50;;
65799;SDS011;52544;48.116;11.660;2023-04-28T14:24:53;1.23;;;1.00;;
65799;SDS011;52544;48.116;11.660;2023-04-28T14:27:19;1.92;;;1.27;;
65799;SDS011;52544;48.116;11.660;2023-04-28T14:29:44;3.28;;;1.10;;
65799;SDS011;52544;48.116;11.660;2023-04-28T14:32:12;1.75;;;0.70;;
65799;SDS011;52544;48.116;11.660;2023-04-28T14:34:38;1.60;;;0.77;;
65799;SDS011;52544;48.116;11.660;2023-04-28T14:37:04;1.77;;;0.68;;
65799;SDS011;52544;48.116;11.660;2023-04-28T14:39:30;0.77;;;0.70;;
65799;SDS011;52544;48.116;11.660;2023-04-28T14:41:56;1.15;;;0.93;;
65799;SDS011;52544;48.116;11.660;2023-04-28T14:44:21;0.70;;;0.65;;
65799;SDS011;52544;48.116;11.660;2023-04-28T14:46:46;1.83;;;0.60;;
65799;SDS011;52544;48.116;11.660;2023-04-28T14:49:12;0.80;;;0.60;;
65799;SDS011;52544;48.116;11.660;2023-04-28T14:51:38;1.98;;;0.90;;
65799;SDS011;52544;48.116;11.660;2023-04-28T14:54:03;1.50;;;0.77;;
65799;SDS011;52544;48.116;11.660;2023-04-28T14:56:29;2.40;;;0.80;;
65799;SDS011;52544;48.116;11.660;2023-04-28T14:58:54;1.92;;;1.00;;
65799;SDS011;52544;48.116;11.660;2023-04-28T15:01:20;2.45;;;1.17;;
65799;SDS011;52544;48.116;11.660;2023-04-28T15:03:45;2.30;;;1.70;;
65799;SDS011;52544;48.116;11.660;2023-04-28T15:06:11;1.30;;;1.00;;
65799;SDS011;52544;48.116;11.660;2023-04-28T15:08:37;3.85;;;1.90;;
65799;SDS011;52544;48.116;11.660;2023-04-28T15:11:04;2.50;;;1.58;;
65799;SDS011;52544;48.116;11.660;2023-04-28T15:13:30;1.85;;;1.10;;